sensor_id;sensor_type;location;lat;lon;timestamp;P1;durP1;ratioP1;P2;durP2;ratioP2
25657;SDS011;13517;59.320;18.042;2022-08-19T00:00:27;55.67;;;27.83;;
25657;SDS011;13517;59.320;18.042;2022-08-19T00:02:53;54.20;;;28.52;;
25657;SDS011;13517;59.320;18.042;2022-08-19T00:05:19;56.95;;;29.25;;
25657;SDS011;13517;59.320;18.042;2022-08-19T00:07:46;62.03;;;30.00;;
25657;SDS011;13517;59.320;18.042;2022-08-19T00:10:12;62.78;;;30.70;;
25657;SDS011;13517;59.320;18.042;2022-08-19T00:12:39;65.40;;;30.88;;
25657;SDS011;13517;59.320;18.042;2022-08-19T00:15:06;64.00;;;31.60;;
25657;SDS011;13517;59.320;18.042;2022-08-19T00:17:37;61.45;;;29.67;;
25657;SDS011;13517;59.320;18.042;2022-08-19T00:20:03;60.38;;;29.02;;
25657;SDS011;13517;59.320;18.042;2022-08-19T00:22:30;60.35;;;29.15;;
25657;SDS011;13517;59.320;18.042;2022-08-19T00:24:56;57.15;;;30.45;;
25657;SDS011;13517;59.320;18.042;2022-08-19T00:27:21;63.38;;;29.88;;
25657;SDS011;13517;59.320;18.042;2022-08-19T00:29:46;57.20;;;28.95;;
25657;SDS011;13517;59.320;18.042;2022-08-19T00:32:12;74.55;;;31.80;;
25657;SDS011;13517;59.320;18.042;2022-08-19T00:34:37;59.42;;;31.48;;
25657;SDS011;13517;59.320;18.042;2022-08-19T00:37:02;65.55;;;32.58;;
25657;SDS011;13517;59.320;18.042;2022-08-19T00:39:28;62.22;;;30.33;;
25657;SDS011;13517;59.320;18.042;2022-08-19T00:41:53;61.83;;;32.08;;
25657;SDS011;13517;59.320;18.042;2022-08-19T00:44:21;60.03;;;31.33;;
25657;SDS011;13517;59.320;18.042;2022-08-19T00:46:49;58.22;;;30.65;;
25657;SDS011;13517;59.320;18.042;2022-08-19T00:49:22;58.58;;;31.05;;
25657;SDS011;13517;59.320;18.042;2022-08-19T00:51:53;63.92;;;31.30;;
25657;SDS011;13517;59.320;18.042;2022-08-19T00:54:23;53.67;;;29.60;;
25657;SDS011;13517;59.320;18.042;2022-08-19T00:56:49;53.53;;;29.55;;
25657;SDS011;13517;59.320;18.042;2022-08-19T00:59:15;56.83;;;30.63;;
25657;SDS011;13517;59.320;18.042;2022-08-19T01:01:43;54.15;;;30.55;;
25657;SDS011;13517;59.320;18.042;2022-08-19T01:04:10;46.92;;;28.33;;
25657;SDS011;13517;59.320;18.042;2022-08-19T01:06:35;51.88;;;28.30;;
25657;SDS011;13517;59.320;18.042;2022-08-19T01:09:02;46.70;;;30.23;;
25657;SDS011;13517;59.320;18.042;2022-08-19T01:11:28;51.08;;;28.30;;
25657;SDS011;13517;59.320;18.042;2022-08-19T01:13:56;49.88;;;30.83;;
25657;SDS011;13517;59.320;18.042;2022-08-19T01:16:23;48.92;;;29.92;;
25657;SDS011;13517;59.320;18.042;2022-08-19T01:18:52;47.33;;;29.27;;
25657;SDS011;13517;59.320;18.042;2022-08-19T01:23:51;45.85;;;27.75;;
25657;SDS011;13517;59.320;18.042;2022-08-19T01:26:18;49.03;;;28.50;;
25657;SDS011;13517;59.320;18.042;2022-08-19T01:28:46;46.25;;;28.77;;
25657;SDS011;13517;59.320;18.042;2022-08-19T01:31:18;44.03;;;30.15;;
25657;SDS011;13517;59.320;18.042;2022-08-19T01:33:49;50.53;;;29.48;;
25657;SDS011;13517;59.320;18.042;2022-08-19T01:36:21;45.53;;;29.52;;
25657;SDS011;13517;59.320;18.042;2022-08-19T01:38:50;48.60;;;30.55;;
25657;SDS011;13517;59.320;18.042;2022-08-19T01:41:17;43.92;;;28.85;;
25657;SDS011;13517;59.320;18.042;2022-08-19T01:43:43;54.72;;;31.50;;
25657;SDS011;13517;59.320;18.042;2022-08-19T01:46:08;44.40;;;29.75;;
25657;SDS011;13517;59.320;18.042;2022-08-19T01:48:35;44.83;;;29.48;;
25657;SDS011;13517;59.320;18.042;2022-08-19T01:51:03;49.67;;;31.95;;
25657;SDS011;13517;59.320;18.042;2022-08-19T01:53:29;43.83;;;29.98;;
25657;SDS011;13517;59.320;18.042;2022-08-19T01:55:54;52.67;;;31.35;;
25657;SDS011;13517;59.320;18.042;2022-08-19T01:58:21;54.25;;;31.33;;
25657;SDS011;13517;59.320;18.042;2022-08-19T02:00:49;49.22;;;30.13;;
25657;SDS011;13517;59.320;18.042;2022-08-19T02:03:14;52.85;;;33.58;;
25657;SDS011;13517;59.320;18.042;2022-08-19T02:05:41;51.72;;;31.55;;
25657;SDS011;13517;59.320;18.042;2022-08-19T02:08:07;50.85;;;32.17;;
25657;SDS011;13517;59.320;18.042;2022-08-19T02:10:33;51.85;;;32.20;;
25657;SDS011;13517;59.320;18.042;2022-08-19T02:12:58;55.17;;;33.20;;
25657;SDS011;13517;59.320;18.042;2022-08-19T02:15:23;47.17;;;32.33;;
25657;SDS011;13517;59.320;18.042;2022-08-19T02:17:50;50.25;;;31.95;;
25657;SDS011;13517;59.320;18.042;2022-08-19T02:20:16;48.05;;;31.60;;
25657;SDS011;13517;59.320;18.042;2022-08-19T02:22:42;53.30;;;31.75;;
25657;SDS011;13517;59.320;18.042;2022-08-19T02:25:11;47.97;;;31.98;;
25657;SDS011;13517;59.320;18.042;2022-08-19T02:27:38;47.15;;;30.50;;
25657;SDS011;13517;59.320;18.042;2022-08-19T02:30:05;50.45;;;33.95;;
25657;SDS011;13517;59.320;18.042;2022-08-19T02:32:33;49.28;;;31.20;;
25657;SDS011;13517;59.320;18.042;2022-08-19T02:34:58;49.38;;;32.97;;
25657;SDS011;13517;59.320;18.042;2022-08-19T02:37:24;48.03;;;32.65;;
25657;SDS011;13517;59.320;18.042;2022-08-19T02:40:07;51.00;;;31.45;;
25657;SDS011;13517;59.320;18.042;2022-08-19T02:42:33;54.60;;;33.67;;
25657;SDS011;13517;59.320;18.042;2022-08-19T02:44:58;50.83;;;32.90;;
25657;SDS011;13517;59.320;18.042;2022-08-19T02:47:24;53.28;;;32.03;;
25657;SDS011;13517;59.320;18.042;2022-08-19T02:49:49;52.78;;;33.20;;
25657;SDS011;13517;59.320;18.042;2022-08-19T02:52:15;45.85;;;32.22;;
25657;SDS011;13517;59.320;18.042;2022-08-19T02:54:41;46.47;;;30.42;;
25657;SDS011;13517;59.320;18.042;2022-08-19T02:57:07;52.25;;;33.85;;
25657;SDS011;13517;59.320;18.042;2022-08-19T02:59:33;48.28;;;31.20;;
25657;SDS011;13517;59.320;18.042;2022-08-19T03:01:59;51.63;;;33.65;;
25657;SDS011;13517;59.320;18.042;2022-08-19T03:04:24;53.40;;;33.58;;
25657;SDS011;13517;59.320;18.042;2022-08-19T03:06:50;49.65;;;30.20;;
25657;SDS011;13517;59.320;18.042;2022-08-19T03:09:16;51.40;;;32.75;;
25657;SDS011;13517;59.320;18.042;2022-08-19T03:11:42;47.33;;;31.17;;
25657;SDS011;13517;59.320;18.042;2022-08-19T03:14:08;45.58;;;31.52;;
25657;SDS011;13517;59.320;18.042;2022-08-19T03:16:39;51.35;;;32.42;;
25657;SDS011;13517;59.320;18.042;2022-08-19T03:19:09;50.78;;;31.75;;
25657;SDS011;13517;59.320;18.042;2022-08-19T03:21:35;49.70;;;33.53;;
25657;SDS011;13517;59.320;18.042;2022-08-19T03:24:02;49.70;;;31.88;;
25657;SDS011;13517;59.320;18.042;2022-08-19T03:26:30;44.55;;;31.52;;
25657;SDS011;13517;59.320;18.042;2022-08-19T03:28:55;51.13;;;32.97;;
25657;SDS011;13517;59.320;18.042;2022-08-19T03:31:21;49.65;;;33.28;;
25657;SDS011;13517;59.320;18.042;2022-08-19T03:33:48;54.95;;;31.70;;
25657;SDS011;13517;59.320;18.042;2022-08-19T03:36:15;48.22;;;30.30;;
25657;SDS011;13517;59.320;18.042;2022-08-19T03:38:48;54.28;;;32.50;;
25657;SDS011;13517;59.320;18.042;2022-08-19T03:41:18;42.28;;;29.75;;
25657;SDS011;13517;59.320;18.042;2022-08-19T03:43:46;45.30;;;31.90;;
25657;SDS011;13517;59.320;18.042;2022-08-19T03:46:13;49.72;;;32.70;;
25657;SDS011;13517;59.320;18.042;2022-08-19T03:48:41;42.60;;;30.08;;
25657;SDS011;13517;59.320;18.042;2022-08-19T03:51:07;50.30;;;33.50;;
25657;SDS011;13517;59.320;18.042;2022-08-19T03:53:40;44.47;;;30.25;;
25657;SDS011;13517;59.320;18.042;2022-08-19T03:56:05;42.22;;;30.38;;
25657;SDS011;13517;59.320;18.042;2022-08-19T03:58:34;45.53;;;32.05;;
25657;SDS011;13517;59.320;18.042;2022-08-19T04:00:59;48.72;;;30.33;;
25657;SDS011;13517;59.320;18.042;2022-08-19T04:03:25;41.35;;;29.73;;
25657;SDS011;13517;59.320;18.042;2022-08-19T04:05:51;50.45;;;33.47;;
25657;SDS011;13517;59.320;18.042;2022-08-19T04:08:18;55.72;;;32.60;;
25657;SDS011;13517;59.320;18.042;2022-08-19T04:10:47;49.05;;;32.85;;
25657;SDS011;13517;59.320;18.042;2022-08-19T04:13:14;41.92;;;27.63;;
25657;SDS011;13517;59.320;18.042;2022-08-19T04:15:44;42.47;;;26.60;;
25657;SDS011;13517;59.320;18.042;2022-08-19T04:18:11;40.45;;;28.58;;
25657;SDS011;13517;59.320;18.042;2022-08-19T04:20:40;39.42;;;28.33;;
25657;SDS011;13517;59.320;18.042;2022-08-19T04:23:10;43.53;;;28.80;;
25657;SDS011;13517;59.320;18.042;2022-08-19T04:25:38;42.50;;;28.08;;
25657;SDS011;13517;59.320;18.042;2022-08-19T04:28:09;49.55;;;29.27;;
25657;SDS011;13517;59.320;18.042;2022-08-19T04:30:46;41.17;;;27.80;;
25657;SDS011;13517;59.320;18.042;2022-08-19T04:33:15;48.92;;;29.65;;
25657;SDS011;13517;59.320;18.042;2022-08-19T04:35:42;39.63;;;28.15;;
25657;SDS011;13517;59.320;18.042;2022-08-19T04:38:10;43.13;;;29.40;;
25657;SDS011;13517;59.320;18.042;2022-08-19T04:40:39;47.92;;;29.83;;
25657;SDS011;13517;59.320;18.042;2022-08-19T04:43:25;44.45;;;29.67;;
25657;SDS011;13517;59.320;18.042;2022-08-19T04:45:50;45.50;;;29.08;;
25657;SDS011;13517;59.320;18.042;2022-08-19T04:48:16;42.40;;;29.20;;
25657;SDS011;13517;59.320;18.042;2022-08-19T04:50:44;43.38;;;29.20;;
25657;SDS011;13517;59.320;18.042;2022-08-19T04:53:09;41.40;;;28.50;;
25657;SDS011;13517;59.320;18.042;2022-08-19T04:55:37;40.67;;;28.33;;
25657;SDS011;13517;59.320;18.042;2022-08-19T04:58:04;40.22;;;26.88;;
25657;SDS011;13517;59.320;18.042;2022-08-19T05:00:29;37.55;;;26.15;;
25657;SDS011;13517;59.320;18.042;2022-08-19T05:02:55;42.33;;;26.08;;
25657;SDS011;13517;59.320;18.042;2022-08-19T05:05:20;35.08;;;25.75;;
25657;SDS011;13517;59.320;18.042;2022-08-19T05:07:46;35.95;;;25.15;;
25657;SDS011;13517;59.320;18.042;2022-08-19T05:10:12;43.00;;;26.70;;
25657;SDS011;13517;59.320;18.042;2022-08-19T05:12:37;38.08;;;26.77;;
25657;SDS011;13517;59.320;18.042;2022-08-19T05:15:04;48.20;;;26.48;;
25657;SDS011;13517;59.320;18.042;2022-08-19T05:17:31;33.08;;;24.40;;
25657;SDS011;13517;59.320;18.042;2022-08-19T05:19:56;39.95;;;24.80;;
25657;SDS011;13517;59.320;18.042;2022-08-19T05:25:11;38.03;;;24.98;;
25657;SDS011;13517;59.320;18.042;2022-08-19T05:27:39;33.80;;;23.83;;
25657;SDS011;13517;59.320;18.042;2022-08-19T05:30:05;36.45;;;25.58;;
25657;SDS011;13517;59.320;18.042;2022-08-19T05:32:31;36.58;;;24.95;;
25657;SDS011;13517;59.320;18.042;2022-08-19T05:34:56;37.80;;;25.10;;
25657;SDS011;13517;59.320;18.042;2022-08-19T05:37:21;31.33;;;22.23;;
25657;SDS011;13517;59.320;18.042;2022-08-19T05:39:47;37.08;;;23.42;;
25657;SDS011;13517;59.320;18.042;2022-08-19T05:42:14;28.80;;;21.90;;
25657;SDS011;13517;59.320;18.042;2022-08-19T05:44:41;34.30;;;23.90;;
25657;SDS011;13517;59.320;18.042;2022-08-19T05:47:09;32.92;;;20.90;;
25657;SDS011;13517;59.320;18.042;2022-08-19T05:49:36;34.70;;;23.58;;
25657;SDS011;13517;59.320;18.042;2022-08-19T05:52:06;34.40;;;22.23;;
25657;SDS011;13517;59.320;18.042;2022-08-19T05:54:34;31.88;;;23.52;;
25657;SDS011;13517;59.320;18.042;2022-08-19T05:57:02;32.10;;;22.80;;
25657;SDS011;13517;59.320;18.042;2022-08-19T05:59:28;34.30;;;23.23;;
25657;SDS011;13517;59.320;18.042;2022-08-19T06:01:53;30.85;;;24.63;;
25657;SDS011;13517;59.320;18.042;2022-08-19T06:04:21;40.88;;;24.90;;
25657;SDS011;13517;59.320;18.042;2022-08-19T06:06:48;30.10;;;23.50;;
25657;SDS011;13517;59.320;18.042;2022-08-19T06:09:16;40.90;;;24.55;;
25657;SDS011;13517;59.320;18.042;2022-08-19T06:11:44;33.67;;;24.13;;
25657;SDS011;13517;59.320;18.042;2022-08-19T06:14:26;37.00;;;26.55;;
25657;SDS011;13517;59.320;18.042;2022-08-19T06:16:53;36.15;;;25.17;;
25657;SDS011;13517;59.320;18.042;2022-08-19T06:19:19;32.17;;;24.33;;
25657;SDS011;13517;59.320;18.042;2022-08-19T06:21:47;39.10;;;26.73;;
25657;SDS011;13517;59.320;18.042;2022-08-19T06:24:19;37.47;;;25.92;;
25657;SDS011;13517;59.320;18.042;2022-08-19T06:26:49;37.20;;;25.15;;
25657;SDS011;13517;59.320;18.042;2022-08-19T06:29:17;32.17;;;24.60;;
25657;SDS011;13517;59.320;18.042;2022-08-19T06:31:45;32.25;;;23.38;;
25657;SDS011;13517;59.320;18.042;2022-08-19T06:34:14;38.88;;;23.65;;
25657;SDS011;13517;59.320;18.042;2022-08-19T06:36:43;34.53;;;24.45;;
25657;SDS011;13517;59.320;18.042;2022-08-19T06:39:11;31.65;;;22.35;;
25657;SDS011;13517;59.320;18.042;2022-08-19T06:41:40;30.98;;;20.67;;
25657;SDS011;13517;59.320;18.042;2022-08-19T06:44:08;29.75;;;19.77;;
25657;SDS011;13517;59.320;18.042;2022-08-19T06:46:35;31.67;;;20.83;;
25657;SDS011;13517;59.320;18.042;2022-08-19T06:49:01;31.63;;;20.30;;
25657;SDS011;13517;59.320;18.042;2022-08-19T06:51:27;37.17;;;20.55;;
25657;SDS011;13517;59.320;18.042;2022-08-19T06:53:54;27.25;;;18.67;;
25657;SDS011;13517;59.320;18.042;2022-08-19T06:56:22;33.42;;;18.00;;
25657;SDS011;13517;59.320;18.042;2022-08-19T06:58:50;29.70;;;17.13;;
25657;SDS011;13517;59.320;18.042;2022-08-19T07:01:18;26.67;;;17.20;;
25657;SDS011;13517;59.320;18.042;2022-08-19T07:03:45;22.38;;;17.65;;
25657;SDS011;13517;59.320;18.042;2022-08-19T07:06:11;24.52;;;15.48;;
25657;SDS011;13517;59.320;18.042;2022-08-19T07:08:40;27.88;;;17.33;;
25657;SDS011;13517;59.320;18.042;2022-08-19T07:11:07;25.33;;;16.83;;
25657;SDS011;13517;59.320;18.042;2022-08-19T07:13:34;29.52;;;18.33;;
25657;SDS011;13517;59.320;18.042;2022-08-19T07:16:06;24.10;;;16.27;;
25657;SDS011;13517;59.320;18.042;2022-08-19T07:18:32;37.28;;;16.35;;
25657;SDS011;13517;59.320;18.042;2022-08-19T07:21:05;23.63;;;16.20;;
25657;SDS011;13517;59.320;18.042;2022-08-19T07:23:32;23.33;;;14.80;;
25657;SDS011;13517;59.320;18.042;2022-08-19T07:25:57;29.38;;;15.02;;
25657;SDS011;13517;59.320;18.042;2022-08-19T07:28:22;22.40;;;14.23;;
25657;SDS011;13517;59.320;18.042;2022-08-19T07:30:48;25.85;;;15.10;;
25657;SDS011;13517;59.320;18.042;2022-08-19T07:33:15;22.17;;;13.52;;
25657;SDS011;13517;59.320;18.042;2022-08-19T07:35:41;19.38;;;13.45;;
25657;SDS011;13517;59.320;18.042;2022-08-19T07:38:06;20.35;;;12.40;;
25657;SDS011;13517;59.320;18.042;2022-08-19T07:40:32;21.60;;;11.95;;
25657;SDS011;13517;59.320;18.042;2022-08-19T07:42:57;28.85;;;12.63;;
25657;SDS011;13517;59.320;18.042;2022-08-19T07:45:22;21.80;;;11.95;;
25657;SDS011;13517;59.320;18.042;2022-08-19T07:47:48;22.38;;;11.73;;
25657;SDS011;13517;59.320;18.042;2022-08-19T07:50:13;23.15;;;11.57;;
25657;SDS011;13517;59.320;18.042;2022-08-19T07:52:39;19.58;;;11.60;;
25657;SDS011;13517;59.320;18.042;2022-08-19T07:55:05;24.90;;;11.60;;
25657;SDS011;13517;59.320;18.042;2022-08-19T07:57:32;19.38;;;11.55;;
25657;SDS011;13517;59.320;18.042;2022-08-19T07:59:58;18.05;;;11.63;;
25657;SDS011;13517;59.320;18.042;2022-08-19T08:02:23;21.45;;;10.93;;
25657;SDS011;13517;59.320;18.042;2022-08-19T08:04:48;16.17;;;10.27;;
25657;SDS011;13517;59.320;18.042;2022-08-19T08:07:32;17.98;;;10.13;;
25657;SDS011;13517;59.320;18.042;2022-08-19T08:10:16;25.83;;;11.18;;
25657;SDS011;13517;59.320;18.042;2022-08-19T08:12:42;24.48;;;10.48;;
25657;SDS011;13517;59.320;18.042;2022-08-19T08:15:12;18.42;;;9.60;;
25657;SDS011;13517;59.320;18.042;2022-08-19T08:17:41;20.80;;;9.63;;
25657;SDS011;13517;59.320;18.042;2022-08-19T08:20:08;20.63;;;10.23;;
25657;SDS011;13517;59.320;18.042;2022-08-19T08:22:34;23.48;;;9.75;;
25657;SDS011;13517;59.320;18.042;2022-08-19T08:25:20;16.45;;;8.93;;
25657;SDS011;13517;59.320;18.042;2022-08-19T08:27:48;17.20;;;9.02;;
25657;SDS011;13517;59.320;18.042;2022-08-19T08:30:24;17.92;;;9.32;;
25657;SDS011;13517;59.320;18.042;2022-08-19T08:32:50;19.35;;;8.95;;
25657;SDS011;13517;59.320;18.042;2022-08-19T08:35:17;23.20;;;8.20;;
25657;SDS011;13517;59.320;18.042;2022-08-19T08:37:45;17.85;;;8.25;;
25657;SDS011;13517;59.320;18.042;2022-08-19T08:40:20;14.55;;;9.15;;
25657;SDS011;13517;59.320;18.042;2022-08-19T08:45:44;20.50;;;8.55;;
25657;SDS011;13517;59.320;18.042;2022-08-19T08:49:17;19.90;;;8.73;;
25657;SDS011;13517;59.320;18.042;2022-08-19T08:51:32;25.88;;;8.43;;
25657;SDS011;13517;59.320;18.042;2022-08-19T08:54:00;14.77;;;9.05;;
25657;SDS011;13517;59.320;18.042;2022-08-19T08:56:27;20.48;;;9.57;;
25657;SDS011;13517;59.320;18.042;2022-08-19T08:59:02;19.50;;;9.43;;
25657;SDS011;13517;59.320;18.042;2022-08-19T09:01:34;22.35;;;9.75;;
25657;SDS011;13517;59.320;18.042;2022-08-19T09:04:02;14.98;;;8.63;;
25657;SDS011;13517;59.320;18.042;2022-08-19T09:17:25;16.10;;;8.25;;
25657;SDS011;13517;59.320;18.042;2022-08-19T09:22:31;20.23;;;10.50;;
25657;SDS011;13517;59.320;18.042;2022-08-19T09:24:57;17.15;;;10.88;;
25657;SDS011;13517;59.320;18.042;2022-08-19T09:27:23;20.15;;;9.57;;
25657;SDS011;13517;59.320;18.042;2022-08-19T09:29:51;17.67;;;8.82;;
25657;SDS011;13517;59.320;18.042;2022-08-19T09:32:17;19.52;;;8.15;;
25657;SDS011;13517;59.320;18.042;2022-08-19T09:34:43;13.48;;;7.97;;
25657;SDS011;13517;59.320;18.042;2022-08-19T09:37:08;15.48;;;8.50;;
25657;SDS011;13517;59.320;18.042;2022-08-19T09:39:34;20.95;;;8.13;;
25657;SDS011;13517;59.320;18.042;2022-08-19T09:41:59;15.43;;;7.57;;
25657;SDS011;13517;59.320;18.042;2022-08-19T09:44:24;16.23;;;7.95;;
25657;SDS011;13517;59.320;18.042;2022-08-19T09:46:50;16.60;;;7.90;;
25657;SDS011;13517;59.320;18.042;2022-08-19T09:49:17;17.63;;;7.63;;
25657;SDS011;13517;59.320;18.042;2022-08-19T09:51:43;14.07;;;8.30;;
25657;SDS011;13517;59.320;18.042;2022-08-19T09:54:08;16.03;;;7.47;;
25657;SDS011;13517;59.320;18.042;2022-08-19T09:56:33;15.52;;;7.55;;
25657;SDS011;13517;59.320;18.042;2022-08-19T09:58:59;17.33;;;7.57;;
25657;SDS011;13517;59.320;18.042;2022-08-19T10:01:26;11.93;;;7.43;;
25657;SDS011;13517;59.320;18.042;2022-08-19T10:03:55;18.65;;;7.88;;
25657;SDS011;13517;59.320;18.042;2022-08-19T10:06:22;13.88;;;7.55;;
25657;SDS011;13517;59.320;18.042;2022-08-19T10:08:49;28.63;;;7.43;;
25657;SDS011;13517;59.320;18.042;2022-08-19T10:11:16;16.88;;;7.75;;
25657;SDS011;13517;59.320;18.042;2022-08-19T10:13:44;16.40;;;7.13;;
25657;SDS011;13517;59.320;18.042;2022-08-19T10:16:17;19.77;;;7.53;;
25657;SDS011;13517;59.320;18.042;2022-08-19T10:18:46;16.35;;;7.53;;
25657;SDS011;13517;59.320;18.042;2022-08-19T10:21:14;18.48;;;8.40;;
25657;SDS011;13517;59.320;18.042;2022-08-19T10:23:44;13.95;;;7.47;;
25657;SDS011;13517;59.320;18.042;2022-08-19T10:26:12;12.88;;;7.05;;
25657;SDS011;13517;59.320;18.042;2022-08-19T10:28:39;15.73;;;7.50;;
25657;SDS011;13517;59.320;18.042;2022-08-19T10:31:09;19.85;;;8.27;;
25657;SDS011;13517;59.320;18.042;2022-08-19T10:33:37;15.48;;;7.82;;
25657;SDS011;13517;59.320;18.042;2022-08-19T10:36:05;18.73;;;7.60;;
25657;SDS011;13517;59.320;18.042;2022-08-19T10:38:42;17.13;;;7.65;;
25657;SDS011;13517;59.320;18.042;2022-08-19T10:41:13;14.60;;;6.93;;
25657;SDS011;13517;59.320;18.042;2022-08-19T10:43:41;13.10;;;7.05;;
25657;SDS011;13517;59.320;18.042;2022-08-19T10:46:07;12.57;;;7.38;;
25657;SDS011;13517;59.320;18.042;2022-08-19T10:48:34;19.45;;;6.95;;
25657;SDS011;13517;59.320;18.042;2022-08-19T10:50:59;19.60;;;6.55;;
25657;SDS011;13517;59.320;18.042;2022-08-19T10:56:09;10.03;;;7.37;;
25657;SDS011;13517;59.320;18.042;2022-08-19T10:58:52;13.48;;;7.35;;
25657;SDS011;13517;59.320;18.042;2022-08-19T11:01:18;17.30;;;7.68;;
25657;SDS011;13517;59.320;18.042;2022-08-19T11:03:43;14.02;;;6.75;;
25657;SDS011;13517;59.320;18.042;2022-08-19T11:06:10;12.82;;;6.95;;
25657;SDS011;13517;59.320;18.042;2022-08-19T11:08:36;12.30;;;6.88;;
25657;SDS011;13517;59.320;18.042;2022-08-19T11:11:02;11.10;;;6.85;;
25657;SDS011;13517;59.320;18.042;2022-08-19T11:13:33;14.15;;;6.65;;
25657;SDS011;13517;59.320;18.042;2022-08-19T11:16:12;14.43;;;6.35;;
25657;SDS011;13517;59.320;18.042;2022-08-19T11:18:44;12.35;;;6.50;;
25657;SDS011;13517;59.320;18.042;2022-08-19T11:23:41;15.00;;;6.55;;
25657;SDS011;13517;59.320;18.042;2022-08-19T11:26:08;11.07;;;6.63;;
25657;SDS011;13517;59.320;18.042;2022-08-19T11:28:33;14.68;;;6.00;;
25657;SDS011;13517;59.320;18.042;2022-08-19T11:30:59;13.18;;;6.88;;
25657;SDS011;13517;59.320;18.042;2022-08-19T11:33:24;15.23;;;6.60;;
25657;SDS011;13517;59.320;18.042;2022-08-19T11:35:51;11.10;;;5.80;;
25657;SDS011;13517;59.320;18.042;2022-08-19T11:38:17;12.25;;;5.55;;
25657;SDS011;13517;59.320;18.042;2022-08-19T11:40:43;14.98;;;7.03;;
25657;SDS011;13517;59.320;18.042;2022-08-19T11:43:09;10.48;;;6.93;;
25657;SDS011;13517;59.320;18.042;2022-08-19T11:45:34;17.80;;;6.20;;
25657;SDS011;13517;59.320;18.042;2022-08-19T11:48:00;15.45;;;6.38;;
25657;SDS011;13517;59.320;18.042;2022-08-19T11:50:26;19.05;;;6.07;;
25657;SDS011;13517;59.320;18.042;2022-08-19T11:52:55;15.00;;;6.03;;
25657;SDS011;13517;59.320;18.042;2022-08-19T11:55:21;7.97;;;6.07;;
25657;SDS011;13517;59.320;18.042;2022-08-19T11:57:47;9.70;;;5.68;;
25657;SDS011;13517;59.320;18.042;2022-08-19T12:00:13;14.32;;;5.95;;
25657;SDS011;13517;59.320;18.042;2022-08-19T12:02:38;16.65;;;6.30;;
25657;SDS011;13517;59.320;18.042;2022-08-19T12:05:04;14.60;;;6.32;;
25657;SDS011;13517;59.320;18.042;2022-08-19T12:07:30;9.93;;;5.70;;
25657;SDS011;13517;59.320;18.042;2022-08-19T12:09:58;15.90;;;6.15;;
25657;SDS011;13517;59.320;18.042;2022-08-19T12:12:23;8.23;;;5.57;;
25657;SDS011;13517;59.320;18.042;2022-08-19T12:14:49;20.35;;;6.25;;
25657;SDS011;13517;59.320;18.042;2022-08-19T12:17:21;14.60;;;6.25;;
25657;SDS011;13517;59.320;18.042;2022-08-19T12:19:47;14.50;;;6.15;;
25657;SDS011;13517;59.320;18.042;2022-08-19T12:22:12;18.27;;;5.93;;
25657;SDS011;13517;59.320;18.042;2022-08-19T12:24:38;10.47;;;5.80;;
25657;SDS011;13517;59.320;18.042;2022-08-19T12:27:03;12.20;;;5.80;;
25657;SDS011;13517;59.320;18.042;2022-08-19T12:29:29;9.82;;;6.18;;
25657;SDS011;13517;59.320;18.042;2022-08-19T12:31:55;14.95;;;6.57;;
25657;SDS011;13517;59.320;18.042;2022-08-19T12:34:30;12.68;;;5.93;;
25657;SDS011;13517;59.320;18.042;2022-08-19T12:36:58;14.13;;;5.43;;
25657;SDS011;13517;59.320;18.042;2022-08-19T12:39:25;13.63;;;6.05;;
25657;SDS011;13517;59.320;18.042;2022-08-19T12:41:51;13.10;;;5.93;;
25657;SDS011;13517;59.320;18.042;2022-08-19T12:44:16;13.70;;;5.57;;
25657;SDS011;13517;59.320;18.042;2022-08-19T12:46:41;11.48;;;5.80;;
25657;SDS011;13517;59.320;18.042;2022-08-19T12:49:07;12.88;;;5.18;;
25657;SDS011;13517;59.320;18.042;2022-08-19T12:51:32;9.63;;;5.43;;
25657;SDS011;13517;59.320;18.042;2022-08-19T12:53:58;14.30;;;5.60;;
25657;SDS011;13517;59.320;18.042;2022-08-19T12:56:24;17.70;;;6.13;;
25657;SDS011;13517;59.320;18.042;2022-08-19T12:58:49;14.18;;;5.82;;
25657;SDS011;13517;59.320;18.042;2022-08-19T13:01:15;11.55;;;6.03;;
25657;SDS011;13517;59.320;18.042;2022-08-19T13:03:42;8.93;;;5.60;;
25657;SDS011;13517;59.320;18.042;2022-08-19T13:06:10;15.27;;;6.88;;
25657;SDS011;13517;59.320;18.042;2022-08-19T13:08:36;13.25;;;6.15;;
25657;SDS011;13517;59.320;18.042;2022-08-19T13:11:07;15.88;;;6.15;;
25657;SDS011;13517;59.320;18.042;2022-08-19T13:13:37;15.30;;;6.68;;
25657;SDS011;13517;59.320;18.042;2022-08-19T13:16:05;17.58;;;6.63;;
25657;SDS011;13517;59.320;18.042;2022-08-19T13:18:31;17.67;;;5.93;;
25657;SDS011;13517;59.320;18.042;2022-08-19T13:20:57;14.93;;;6.70;;
25657;SDS011;13517;59.320;18.042;2022-08-19T13:23:28;8.68;;;5.63;;
25657;SDS011;13517;59.320;18.042;2022-08-19T13:25:57;13.83;;;6.73;;
25657;SDS011;13517;59.320;18.042;2022-08-19T13:28:23;15.77;;;6.55;;
25657;SDS011;13517;59.320;18.042;2022-08-19T13:30:49;9.27;;;6.43;;
25657;SDS011;13517;59.320;18.042;2022-08-19T13:33:43;13.30;;;6.15;;
25657;SDS011;13517;59.320;18.042;2022-08-19T13:36:10;16.80;;;6.60;;
25657;SDS011;13517;59.320;18.042;2022-08-19T13:38:35;21.60;;;7.37;;
25657;SDS011;13517;59.320;18.042;2022-08-19T13:41:03;9.52;;;6.75;;
25657;SDS011;13517;59.320;18.042;2022-08-19T13:43:31;11.70;;;6.65;;
25657;SDS011;13517;59.320;18.042;2022-08-19T13:45:56;18.45;;;7.15;;
25657;SDS011;13517;59.320;18.042;2022-08-19T13:48:21;14.88;;;6.70;;
25657;SDS011;13517;59.320;18.042;2022-08-19T13:50:48;10.57;;;6.93;;
25657;SDS011;13517;59.320;18.042;2022-08-19T13:53:14;12.98;;;7.20;;
25657;SDS011;13517;59.320;18.042;2022-08-19T13:55:41;15.38;;;7.90;;
25657;SDS011;13517;59.320;18.042;2022-08-19T13:58:07;12.57;;;7.15;;
25657;SDS011;13517;59.320;18.042;2022-08-19T14:00:38;16.38;;;7.00;;
25657;SDS011;13517;59.320;18.042;2022-08-19T14:03:06;16.30;;;8.15;;
25657;SDS011;13517;59.320;18.042;2022-08-19T14:05:31;15.82;;;6.75;;
25657;SDS011;13517;59.320;18.042;2022-08-19T14:07:57;16.90;;;7.40;;
25657;SDS011;13517;59.320;18.042;2022-08-19T14:10:23;17.75;;;7.15;;
25657;SDS011;13517;59.320;18.042;2022-08-19T14:12:52;14.38;;;7.15;;
25657;SDS011;13517;59.320;18.042;2022-08-19T14:15:20;13.10;;;6.93;;
25657;SDS011;13517;59.320;18.042;2022-08-19T14:17:46;19.08;;;6.88;;
25657;SDS011;13517;59.320;18.042;2022-08-19T14:20:13;18.40;;;7.18;;
25657;SDS011;13517;59.320;18.042;2022-08-19T14:22:40;19.80;;;7.20;;
25657;SDS011;13517;59.320;18.042;2022-08-19T14:25:07;10.15;;;7.05;;
25657;SDS011;13517;59.320;18.042;2022-08-19T14:27:37;17.85;;;6.93;;
25657;SDS011;13517;59.320;18.042;2022-08-19T14:30:04;18.23;;;7.70;;
25657;SDS011;13517;59.320;18.042;2022-08-19T14:32:31;12.50;;;6.78;;
25657;SDS011;13517;59.320;18.042;2022-08-19T14:34:57;16.95;;;8.27;;
25657;SDS011;13517;59.320;18.042;2022-08-19T14:37:23;15.18;;;7.97;;
25657;SDS011;13517;59.320;18.042;2022-08-19T14:39:48;16.35;;;7.43;;
25657;SDS011;13517;59.320;18.042;2022-08-19T14:42:14;13.23;;;7.75;;